createdAt,value
2019-01-21T00:00:58.890Z,10.03
2019-01-21T00:03:42.716Z,11.13
2019-01-21T00:06:33.769Z,12.00
2019-01-21T00:09:17.607Z,10.70
2019-01-21T00:12:08.582Z,11.70
2019-01-21T00:14:52.667Z,10.70
2019-01-21T00:17:43.647Z,11.18
2019-01-21T00:20:27.065Z,11.08
2019-01-21T00:23:18.409Z,11.50
2019-01-21T00:26:02.808Z,10.57
2019-01-21T00:28:46.222Z,11.47
2019-01-21T00:31:29.854Z,10.98
2019-01-21T00:34:20.889Z,12.00
2019-01-21T00:37:04.305Z,11.13
2019-01-21T00:39:55.630Z,10.68
2019-01-21T00:42:39.682Z,11.55
2019-01-21T00:45:30.725Z,12.30
2019-01-21T00:48:14.333Z,11.03
2019-01-21T00:51:05.391Z,10.93
2019-01-21T00:53:48.861Z,11.97
2019-01-21T00:56:39.934Z,10.98
2019-01-21T00:59:23.850Z,10.37
2019-01-21T01:02:14.914Z,10.70
2019-01-21T01:04:58.618Z,10.07
2019-01-21T01:07:41.990Z,10.13
2019-01-21T01:10:32.949Z,11.40
2019-01-21T01:13:16.762Z,10.40
2019-01-21T01:16:07.799Z,10.43
2019-01-21T01:18:51.758Z,9.80
2019-01-21T01:22:02.244Z,11.43
2019-01-21T01:24:45.800Z,11.00
2019-01-21T01:27:36.850Z,10.20
2019-01-21T01:30:22.010Z,10.72
2019-01-21T01:33:12.983Z,10.50
2019-01-21T01:35:56.565Z,10.03
2019-01-21T01:38:47.540Z,11.43
2019-01-21T01:41:31.330Z,10.85
2019-01-21T01:44:22.677Z,9.70
2019-01-21T01:47:06.900Z,9.93
2019-01-21T01:49:57.947Z,10.30
2019-01-21T01:52:41.590Z,10.53
2019-01-21T01:59:02.094Z,11.13
2019-01-21T02:01:46.329Z,10.60
2019-01-21T02:04:29.841Z,11.55
2019-01-21T02:07:20.806Z,10.53
2019-01-21T02:10:04.868Z,10.97
2019-01-21T02:15:58.233Z,10.60
2019-01-21T02:18:56.670Z,10.53
2019-01-21T02:21:48.023Z,11.00
2019-01-21T02:24:34.408Z,10.13
2019-01-21T02:30:51.514Z,10.30
2019-01-21T02:33:46.571Z,10.58
2019-01-21T02:37:03.886Z,10.57
2019-01-21T02:40:12.527Z,11.40
2019-01-21T02:43:41.933Z,10.75
2019-01-21T02:46:39.198Z,10.20
2019-01-21T02:49:41.853Z,10.60
2019-01-21T02:53:11.282Z,10.73
2019-01-21T02:56:14.720Z,10.10
2019-01-21T02:59:44.156Z,11.30
2019-01-21T03:02:37.783Z,10.65
2019-01-21T03:06:12.836Z,11.90
2019-01-21T03:09:42.247Z,11.27
2019-01-21T03:12:48.418Z,11.03
2019-01-21T03:15:51.902Z,10.30
2019-01-21T03:19:21.336Z,11.05
2019-01-21T03:22:24.478Z,10.53
2019-01-21T03:25:27.228Z,9.90
2019-01-21T03:28:56.623Z,10.53
2019-01-21T03:31:59.574Z,10.23
2019-01-21T03:35:28.967Z,10.40
2019-01-21T03:38:31.827Z,10.37
2019-01-21T03:42:01.501Z,10.80
2019-01-21T03:45:05.174Z,10.60
2019-01-21T03:48:34.551Z,10.43
2019-01-21T03:51:37.862Z,11.00
2019-01-21T03:54:50.983Z,10.27
2019-01-21T03:57:40.932Z,10.83
2019-01-21T04:00:36.989Z,10.23
2019-01-21T04:03:40.549Z,9.50
2019-01-21T04:06:53.217Z,11.97
2019-01-21T04:09:56.263Z,9.95
2019-01-21T04:13:25.702Z,10.93
2019-01-21T04:16:29.035Z,11.03
2019-01-21T04:23:43.179Z,11.37
2019-01-21T04:26:46.108Z,10.85
2019-01-21T04:30:15.520Z,11.23
2019-01-21T04:33:24.740Z,10.37
2019-01-21T04:36:54.159Z,11.33
2019-01-21T04:39:57.673Z,10.75
2019-01-21T04:43:00.296Z,11.60
2019-01-21T04:46:19.087Z,10.63
2019-01-21T04:49:44.268Z,11.10
2019-01-21T04:52:59.671Z,11.08
2019-01-21T04:56:02.930Z,12.47
2019-01-21T04:59:32.309Z,10.85
2019-01-21T05:02:23.480Z,11.07
2019-01-21T05:09:29.975Z,12.17
2019-01-21T05:12:33.315Z,12.00
2019-01-21T05:16:02.701Z,10.67
2019-01-21T05:18:55.029Z,13.13
2019-01-21T05:22:24.419Z,13.68
2019-01-21T05:25:27.159Z,13.97
2019-01-21T05:28:56.548Z,14.80
2019-01-21T05:32:05.367Z,11.67
2019-01-21T05:35:45.680Z,14.53
2019-01-21T05:38:51.260Z,15.20
2019-01-21T05:42:11.325Z,16.30
2019-01-21T05:45:19.670Z,13.75
2019-01-21T05:48:07.171Z,14.33
2019-01-21T05:55:10.721Z,10.77
2019-01-21T05:58:13.625Z,12.90
2019-01-21T06:01:28.497Z,14.37
2019-01-21T06:04:25.711Z,11.37
2019-01-21T06:07:55.141Z,14.87
2019-01-21T06:10:47.571Z,14.75
2019-01-21T06:13:40.738Z,11.28
2019-01-21T06:16:54.757Z,14.93
2019-01-21T06:19:49.982Z,14.15
2019-01-21T06:23:19.366Z,12.67
2019-01-21T06:26:22.466Z,13.70
2019-01-21T06:29:51.887Z,16.10
2019-01-21T06:32:55.220Z,11.88
2019-01-21T06:36:24.649Z,12.85
2019-01-21T06:39:28.013Z,14.30
2019-01-21T06:42:58.374Z,30.90
2019-01-21T06:46:01.661Z,13.60
2019-01-21T06:49:18.661Z,12.30
2019-01-21T06:52:21.617Z,12.63
2019-01-21T06:55:51.122Z,15.00
2019-01-21T06:58:43.716Z,15.32
2019-01-21T07:05:45.401Z,12.57
2019-01-21T07:08:35.068Z,11.50
2019-01-21T07:11:51.046Z,15.60
2019-01-21T07:14:42.169Z,18.25
2019-01-21T07:18:11.727Z,17.83
2019-01-21T07:21:08.216Z,15.32
2019-01-21T07:24:00.969Z,14.90
2019-01-21T07:27:30.371Z,11.10
2019-01-21T07:30:33.339Z,17.47
2019-01-21T07:34:02.751Z,16.70
2019-01-21T07:37:05.524Z,15.40
2019-01-21T07:40:08.606Z,16.63
2019-01-21T07:43:38.016Z,15.73
2019-01-21T07:46:41.683Z,12.50
2019-01-21T07:49:32.444Z,14.97
2019-01-21T07:53:02.085Z,18.57
2019-01-21T07:56:04.685Z,15.33
2019-01-21T07:59:22.804Z,15.50
2019-01-21T08:02:10.666Z,17.00
2019-01-21T08:05:13.918Z,13.20
2019-01-21T08:08:01.793Z,15.20
2019-01-21T08:11:04.992Z,17.03
2019-01-21T08:14:18.896Z,12.97
2019-01-21T08:17:22.236Z,14.67
2019-01-21T08:20:25.361Z,17.03
2019-01-21T08:23:54.750Z,15.93
2019-01-21T08:26:42.585Z,13.68
2019-01-21T08:30:11.971Z,14.35
2019-01-21T08:33:21.070Z,10.97
2019-01-21T08:40:15.722Z,13.33
2019-01-21T08:43:08.762Z,15.13
2019-01-21T08:46:39.129Z,15.27
2019-01-21T08:49:45.307Z,16.40
2019-01-21T08:53:02.560Z,17.85
2019-01-21T08:56:06.098Z,16.35
2019-01-21T08:59:23.273Z,16.37
2019-01-21T09:02:51.056Z,12.97
2019-01-21T09:06:05.414Z,17.62
2019-01-21T09:09:34.792Z,16.25
2019-01-21T09:12:37.809Z,13.77
2019-01-21T09:16:07.193Z,9.90
2019-01-21T09:19:10.175Z,14.50
2019-01-21T09:22:33.415Z,14.07
2019-01-21T09:25:36.345Z,12.50
2019-01-21T09:28:49.682Z,15.73
2019-01-21T09:31:52.632Z,13.15
2019-01-21T09:39:10.406Z,13.43
2019-01-21T09:42:29.022Z,11.93
2019-01-21T09:45:58.419Z,15.60
2019-01-21T09:48:41.773Z,13.13
2019-01-21T09:51:24.720Z,15.93
2019-01-21T09:54:15.931Z,17.03
2019-01-21T09:56:59.342Z,12.47
2019-01-21T10:00:13.023Z,16.30
2019-01-21T10:02:56.561Z,14.13
2019-01-21T10:05:48.599Z,16.47
2019-01-21T10:08:38.216Z,14.55
2019-01-21T10:11:52.880Z,17.97
2019-01-21T10:14:49.525Z,15.50
2019-01-21T10:18:18.915Z,14.17
2019-01-21T10:21:21.515Z,16.17
2019-01-21T10:24:36.455Z,16.00
2019-01-21T10:27:45.497Z,15.30
2019-01-21T10:34:58.781Z,16.87
2019-01-21T10:37:50.274Z,17.93
2019-01-21T10:41:12.920Z,18.73
2019-01-21T10:44:08.968Z,17.23
2019-01-21T10:47:26.769Z,18.83
2019-01-21T10:50:30.610Z,17.93
2019-01-21T10:53:39.722Z,17.60
2019-01-21T10:57:02.048Z,18.47
2019-01-21T11:00:04.578Z,17.07
2019-01-21T11:03:22.486Z,18.87
2019-01-21T11:06:25.539Z,16.17
2019-01-21T11:09:34.479Z,16.60
2019-01-21T11:13:03.862Z,18.03
2019-01-21T11:16:06.850Z,16.50
2019-01-21T11:19:10.756Z,18.53
2019-01-21T11:22:40.216Z,17.60
2019-01-21T11:25:42.709Z,17.60
2019-01-21T11:28:36.577Z,20.60
2019-01-21T11:32:05.958Z,20.60
2019-01-21T11:35:00.207Z,5.47
2019-01-21T11:38:29.593Z,18.37
2019-01-21T11:41:20.414Z,18.37
2019-01-21T11:44:49.804Z,19.40
2019-01-21T11:47:43.961Z,20.70
2019-01-21T11:51:07.842Z,17.05
2019-01-21T11:54:10.780Z,18.50
2019-01-21T11:57:40.185Z,18.10
2019-01-21T12:00:31.359Z,15.33
2019-01-21T12:03:23.675Z,19.57
2019-01-21T12:06:20.636Z,19.03
2019-01-21T12:09:46.066Z,16.37
2019-01-21T12:12:35.837Z,18.15
2019-01-21T12:16:05.252Z,18.10
2019-01-21T12:19:07.999Z,19.03
2019-01-21T12:22:31.218Z,16.20
2019-01-21T12:25:19.867Z,14.20
2019-01-21T12:28:49.246Z,17.23
2019-01-21T12:31:51.832Z,10.78
2019-01-21T12:34:38.372Z,8.30
2019-01-21T12:37:52.776Z,14.37
2019-01-21T12:40:56.306Z,13.20
2019-01-21T12:44:26.664Z,20.03
2019-01-21T12:47:20.220Z,17.37
2019-01-21T12:50:29.084Z,19.00
2019-01-21T12:53:58.459Z,19.37
2019-01-21T12:57:01.564Z,17.77
2019-01-21T13:00:30.945Z,17.53
2019-01-21T13:03:36.358Z,20.40
2019-01-21T13:06:41.722Z,18.77
2019-01-21T13:10:11.130Z,20.57
2019-01-21T13:13:19.894Z,19.50
2019-01-21T13:16:23.191Z,19.20
2019-01-21T13:19:52.835Z,19.98
2019-01-21T13:22:42.705Z,17.70
2019-01-21T13:25:49.029Z,19.70
2019-01-21T13:29:05.525Z,21.30
2019-01-21T13:32:08.728Z,19.27
2019-01-21T13:35:17.331Z,16.53
2019-01-21T13:38:19.313Z,21.27
2019-01-21T13:41:25.497Z,21.50
2019-01-21T13:44:54.871Z,16.33
2019-01-21T13:47:47.807Z,20.12
2019-01-21T13:51:14.099Z,12.75
2019-01-21T13:54:16.554Z,20.50
2019-01-21T13:57:25.833Z,25.60
2019-01-21T14:00:55.265Z,21.30
2019-01-21T14:04:03.973Z,19.50
2019-01-21T14:07:06.763Z,20.82
2019-01-21T14:10:23.007Z,19.30
2019-01-21T14:13:26.467Z,21.73
2019-01-21T14:16:35.922Z,18.53
2019-01-21T14:19:52.347Z,21.80
2019-01-21T14:22:54.810Z,22.13
2019-01-21T14:26:24.466Z,23.23
2019-01-21T14:29:16.914Z,19.60
2019-01-21T14:32:46.296Z,26.43
2019-01-21T14:35:49.174Z,24.23
2019-01-21T14:39:18.548Z,23.07
2019-01-21T14:42:12.370Z,23.63
2019-01-21T14:45:41.768Z,22.42
2019-01-21T14:48:44.611Z,20.37
2019-01-21T14:52:13.992Z,24.23
2019-01-21T14:55:06.397Z,23.13
2019-01-21T14:58:36.777Z,23.67
2019-01-21T15:01:40.187Z,22.73
2019-01-21T15:04:48.613Z,23.07
2019-01-21T15:07:57.257Z,24.17
2019-01-21T15:11:26.661Z,21.53
2019-01-21T15:14:31.166Z,21.83
2019-01-21T15:17:39.826Z,22.47
2019-01-21T15:21:09.322Z,20.97
2019-01-21T15:24:12.481Z,20.27
2019-01-21T15:27:11.362Z,22.17
2019-01-21T15:30:02.656Z,21.93
2019-01-21T15:33:17.442Z,20.90
2019-01-21T15:36:11.757Z,20.63
2019-01-21T15:39:25.854Z,20.60
2019-01-21T15:42:34.683Z,19.20
2019-01-21T15:46:04.147Z,23.70
2019-01-21T15:49:06.709Z,20.37
2019-01-21T15:52:36.099Z,19.43
2019-01-21T15:55:43.393Z,21.48
2019-01-21T15:59:12.778Z,22.65
2019-01-21T16:02:02.749Z,20.00
2019-01-21T16:05:05.915Z,20.27
2019-01-21T16:08:22.136Z,19.80
2019-01-21T16:11:14.278Z,20.83
2019-01-21T16:14:03.414Z,19.80
2019-01-21T16:17:32.799Z,20.83
2019-01-21T16:20:20.498Z,19.10
2019-01-21T16:23:49.993Z,20.27
2019-01-21T16:26:52.651Z,20.17
2019-01-21T16:29:38.554Z,19.67
2019-01-21T16:33:07.955Z,17.75
2019-01-21T16:36:10.750Z,18.83
2019-01-21T16:39:40.401Z,18.52
2019-01-21T16:42:23.878Z,20.53
2019-01-21T16:45:14.919Z,19.20
2019-01-21T16:47:58.981Z,17.57
2019-01-21T16:50:50.191Z,20.53
2019-01-21T16:53:34.134Z,17.10
2019-01-21T16:56:25.100Z,19.00
2019-01-21T16:59:09.138Z,22.87
2019-01-21T17:02:00.498Z,21.42
2019-01-21T17:04:44.607Z,21.70
2019-01-21T17:07:35.559Z,23.27
2019-01-21T17:10:19.135Z,22.63
2019-01-21T17:13:10.235Z,23.85
2019-01-21T17:15:54.179Z,39.97
2019-01-21T17:18:45.145Z,36.03
2019-01-21T17:21:28.672Z,24.70
2019-01-21T17:24:19.701Z,23.17
2019-01-21T17:27:10.735Z,23.23
2019-01-21T17:29:54.457Z,24.43
2019-01-21T17:32:45.496Z,23.70
2019-01-21T17:35:28.961Z,25.32
2019-01-21T17:38:19.981Z,23.50
2019-01-21T17:41:03.604Z,23.60
2019-01-21T17:43:55.518Z,23.60
2019-01-21T17:46:39.596Z,20.25
2019-01-21T17:49:30.572Z,20.90
2019-01-21T17:52:02.751Z,21.03
2019-01-21T17:54:53.786Z,21.93
2019-01-21T17:57:37.833Z,21.57
2019-01-21T18:00:29.332Z,20.17
2019-01-21T18:03:13.452Z,19.87
2019-01-21T18:05:57.199Z,19.92
2019-01-21T18:15:12.053Z,21.50
2019-01-21T18:17:55.541Z,23.27
2019-01-21T18:20:39.532Z,28.10
2019-01-21T18:23:30.564Z,25.93
2019-01-21T18:26:13.930Z,23.00
2019-01-21T18:29:05.233Z,20.07
2019-01-21T18:31:49.143Z,22.00
2019-01-21T18:34:40.181Z,20.85
2019-01-21T18:37:24.478Z,21.03
2019-01-21T18:40:17.508Z,21.10
2019-01-21T18:43:02.380Z,21.60
2019-01-21T18:45:53.515Z,20.63
2019-01-21T18:48:37.138Z,19.98
2019-01-21T18:51:28.569Z,19.57
2019-01-21T18:54:12.670Z,21.10
2019-01-21T18:57:03.676Z,21.80
2019-01-21T18:59:46.940Z,20.20
2019-01-21T19:02:38.006Z,18.93
2019-01-21T19:05:22.803Z,17.47
2019-01-21T19:08:13.954Z,20.80
2019-01-21T19:10:57.567Z,21.90
2019-01-21T19:13:48.705Z,18.40
2019-01-21T19:16:32.630Z,22.27
2019-01-21T19:19:23.760Z,22.67
2019-01-21T19:22:14.643Z,17.77
2019-01-21T19:25:05.951Z,18.63
2019-01-21T19:27:49.830Z,16.90
2019-01-21T19:30:40.873Z,18.23
2019-01-21T19:33:24.687Z,14.80
2019-01-21T19:36:08.592Z,16.02
2019-01-21T19:38:59.540Z,19.97
2019-01-21T19:41:43.448Z,20.30
2019-01-21T19:44:34.471Z,18.33
2019-01-21T19:47:18.045Z,18.67
2019-01-21T19:50:10.009Z,19.43
2019-01-21T19:52:53.560Z,17.50
2019-01-21T19:56:04.140Z,15.98
2019-01-21T19:58:48.064Z,14.30
2019-01-21T20:01:31.505Z,14.75
2019-01-21T20:04:15.131Z,18.40
2019-01-21T20:06:58.793Z,18.80
2019-01-21T20:09:50.217Z,17.70
2019-01-21T20:12:34.252Z,17.20
2019-01-21T20:15:25.275Z,16.53
2019-01-21T20:18:08.883Z,17.83
2019-01-21T20:20:59.931Z,15.83
2019-01-21T20:23:43.319Z,18.70
2019-01-21T20:26:34.527Z,15.68
2019-01-21T20:29:18.381Z,14.93
2019-01-21T20:32:02.370Z,17.57
2019-01-21T20:34:53.389Z,15.53
2019-01-21T20:37:37.120Z,16.75
2019-01-21T20:40:47.532Z,16.73
2019-01-21T20:43:31.344Z,18.35
2019-01-21T20:46:22.373Z,18.60
2019-01-21T20:52:14.264Z,18.50
2019-01-21T20:55:14.975Z,17.93
2019-01-21T20:57:58.349Z,16.97
2019-01-21T21:00:50.342Z,15.87
2019-01-21T21:03:34.295Z,11.83
2019-01-21T21:09:28.065Z,14.83
2019-01-21T21:12:25.677Z,13.98
2019-01-21T21:15:14.942Z,14.13
2019-01-21T21:18:06.583Z,15.33
2019-01-21T21:20:49.884Z,18.13
2019-01-21T21:23:40.860Z,18.67
2019-01-21T21:26:24.838Z,18.50
2019-01-21T21:29:15.877Z,17.00
2019-01-21T21:31:59.173Z,18.43
2019-01-21T21:34:50.132Z,17.50
2019-01-21T21:37:34.274Z,14.87
2019-01-21T21:40:25.475Z,19.13
2019-01-21T21:43:09.585Z,14.77
2019-01-21T21:46:00.719Z,18.30
2019-01-21T21:48:44.524Z,9.80
2019-01-21T21:51:35.621Z,16.30
2019-01-21T21:54:17.985Z,16.40
2019-01-21T21:57:09.014Z,17.83
2019-01-21T21:59:52.641Z,16.10
2019-01-21T22:02:43.813Z,16.75
2019-01-21T22:05:27.436Z,16.00
2019-01-21T22:08:18.474Z,16.83
2019-01-21T22:11:02.128Z,15.43
2019-01-21T22:13:46.136Z,14.50
2019-01-21T22:16:38.511Z,16.32
2019-01-21T22:19:22.373Z,16.37
2019-01-21T22:22:13.598Z,13.23
2019-01-21T22:24:57.266Z,13.43
2019-01-21T22:27:48.370Z,14.40
2019-01-21T22:30:32.461Z,15.32
2019-01-21T22:33:23.499Z,15.40
2019-01-21T22:36:07.509Z,16.37
2019-01-21T22:38:51.361Z,15.73
2019-01-21T22:41:42.712Z,17.05
2019-01-21T22:44:26.565Z,16.12
2019-01-21T22:47:17.528Z,16.80
2019-01-21T22:50:01.411Z,15.87
2019-01-21T22:52:52.737Z,17.02
2019-01-21T22:55:36.747Z,16.35
2019-01-21T22:58:28.970Z,15.38
2019-01-21T23:01:18.624Z,15.70
2019-01-21T23:04:13.588Z,14.87
2019-01-21T23:06:57.375Z,15.63
2019-01-21T23:09:41.631Z,15.37
2019-01-21T23:12:33.623Z,16.25
2019-01-21T23:15:17.153Z,17.33
2019-01-21T23:18:08.523Z,17.10
2019-01-21T23:20:52.683Z,17.03
2019-01-21T23:23:44.073Z,18.07
2019-01-21T23:26:29.566Z,18.05
2019-01-21T23:29:20.540Z,15.10
2019-01-21T23:32:04.540Z,15.07
2019-01-21T23:34:55.877Z,14.60
2019-01-21T23:37:39.722Z,8.43
2019-01-21T23:40:31.038Z,16.62
2019-01-21T23:43:14.914Z,15.90
2019-01-21T23:46:06.247Z,15.53
2019-01-21T23:48:50.023Z,14.07
2019-01-21T23:51:41.090Z,17.03
2019-01-21T23:54:24.718Z,14.90
2019-01-21T23:57:15.673Z,15.13
2019-01-21T23:59:59.366Z,16.27
